Sacramento, California
Traffic Map
Current Weather Conditions
Sacramento, California
Clear
Clear
32°
Feels Like: 32°
Wind Chill: 32° Ceiling: Unl
Heat Index: 32° Visibility: 10mi
Dew Point: 10° Wind: 10mph
Humidity: 25% Direction: 220° (SW)
Pressure: 29.79in Gusts: 0mph
Raw Report DataKSAC 010053Z AUTO 22009KT 10SM CLR 32/10 A2979 RMK AO2 SLP088 T03220100 TSNO
Traffic Incident Summary
Active as of:
Severity:
Category:
InformationThere was an issue retrieving the traffic information for this location. Please try a different location or try again shortly.
Advertisements
Track Severe Weather on mobile